Time;durP1;ratioP1;P1;durP2;ratioP2;P2;SDS_P1;SDS_P2;PMS_P1;PMS_P2;Temp;Humidity;BMP_temperature;BMP_pressure;BME280_temperature;BME280_humidity;BME280_pressure;Samples;Min_cycle;Max_cycle;Signal;HPM_P1;HPM_P2
2022/12/15 00:40:35;;;;;;;31.07;14.17;;;-2.80;99.90;;;;;;5053358;28;20299;-45
2022/12/15 00:43:00;;;;;;;27.53;13.07;;;-2.80;99.90;;;;;;5053286;28;20609;-46
2022/12/15 00:46:53;;;;;;;27.67;13.03;;;-3.00;99.90;;;;;;5052876;28;20652;-46
2022/12/15 00:48:11;;;;;;;24.57;12.73;;;-3.00;99.90;;;;;;5052966;28;20206;-44
2022/12/15 00:50:52;;;;;;;27.63;13.17;;;-3.10;99.90;;;;;;5053089;28;20173;-44
2022/12/15 01:20:39;;;;;;;35.70;14.50;;;-3.10;99.90;;;;;;5051888;28;20587;-50
2022/12/15 01:23:05;;;;;;;32.17;14.23;;;-3.10;99.90;;;;;;5052473;28;20172;-49
2022/12/15 01:25:30;;;;;;;29.50;15.70;;;-3.00;99.90;;;;;;5052411;28;20213;-52
2022/12/15 01:27:56;;;;;;;40.10;16.53;;;-3.00;99.90;;;;;;5052283;28;20662;-44
2022/12/15 01:30:24;;;;;;;32.33;15.10;;;-3.00;99.90;;;;;;5052321;28;20540;-43
2022/12/15 01:32:50;;;;;;;26.60;13.80;;;-3.10;99.90;;;;;;5052617;28;20159;-44
2022/12/15 01:35:16;;;;;;;34.20;13.67;;;-3.00;99.90;;;;;;5052566;28;20191;-43
2022/12/15 01:37:42;;;;;;;32.27;14.47;;;-3.00;99.90;;;;;;5052200;28;20174;-44
2022/12/15 01:42:56;;;;;;;27.60;14.07;;;-3.00;99.90;;;;;;5052443;28;20173;-45
2022/12/15 01:45:28;;;;;;;27.33;12.90;;;-3.20;99.90;;;;;;5052065;28;20179;-43
2022/12/15 01:48:07;;;;;;;40.17;14.47;;;-3.30;99.90;;;;;;5052066;28;20688;-45
2022/12/15 01:50:39;;;;;;;31.13;14.17;;;-3.40;99.90;;;;;;5052018;28;20207;-45
2022/12/15 01:53:05;;;;;;;34.10;13.90;;;-3.30;99.90;;;;;;5051924;28;20610;-44
2022/12/15 01:55:31;;;;;;;28.67;13.80;;;-3.20;99.90;;;;;;5051726;28;20243;-46
2022/12/15 01:58:04;;;;;;;25.10;13.53;;;-3.10;99.90;;;;;;5051979;28;20293;-48
2022/12/15 02:00:30;;;;;;;41.57;13.77;;;-3.00;99.90;;;;;;5051689;28;20176;-44
2022/12/15 02:02:57;;;;;;;26.17;14.80;;;-3.20;99.90;;;;;;5051899;28;20170;-46
2022/12/15 02:05:23;;;;;;;35.50;12.43;;;-3.20;99.90;;;;;;5051752;28;20579;-44
2022/12/15 02:07:49;;;;;;;28.97;12.70;;;-3.20;99.90;;;;;;5052016;28;20234;-44
2022/12/15 02:10:15;;;;;;;39.90;14.23;;;-4.10;99.90;;;;;;5052192;28;20171;-47
2022/12/15 02:13:08;;;;;;;32.67;12.90;;;-3.20;99.90;;;;;;5051721;28;20630;-49
2022/12/15 02:15:37;;;;;;;32.97;13.43;;;-3.20;99.90;;;;;;5051982;28;20182;-45
2022/12/15 02:18:14;;;;;;;36.40;13.93;;;-3.20;99.90;;;;;;5051610;28;20180;-46
2022/12/15 02:20:58;;;;;;;36.17;14.73;;;-3.10;99.90;;;;;;5051817;28;20168;-49
2022/12/15 02:23:50;;;;;;;31.23;15.47;;;-3.20;99.90;;;;;;5051642;28;20163;-51
2022/12/15 02:26:34;;;;;;;28.87;13.60;;;-3.20;99.90;;;;;;5050683;28;20185;-51
2022/12/15 02:29:41;;;;;;;27.70;13.83;;;-3.30;99.90;;;;;;5051710;28;20224;-51
2022/12/15 02:32:12;;;;;;;27.53;12.23;;;-3.30;99.90;;;;;;5051604;28;20169;-51
2022/12/15 02:35:07;;;;;;;42.00;13.63;;;-3.30;99.90;;;;;;5051792;28;20175;-47
2022/12/15 02:37:38;;;;;;;39.27;13.53;;;-3.30;99.90;;;;;;5051419;28;20612;-48
2022/12/15 02:40:07;;;;;;;34.17;14.07;;;-3.40;99.90;;;;;;5051439;28;20189;-47
2022/12/15 02:42:37;;;;;;;37.43;15.00;;;-3.40;99.90;;;;;;5051368;28;20555;-48
2022/12/15 02:45:10;;;;;;;37.57;14.70;;;-3.50;99.90;;;;;;5051407;28;20163;-49
2022/12/15 02:47:51;;;;;;;48.20;14.93;;;-3.50;99.90;;;;;;5051336;28;20555;-50
2022/12/15 02:50:48;;;;;;;36.93;14.40;;;-3.50;99.90;;;;;;5051736;28;20172;-49
2022/12/15 02:53:14;;;;;;;50.60;15.60;;;-3.40;99.90;;;;;;5051371;28;20229;-45
2022/12/15 02:55:49;;;;;;;60.67;15.03;;;-3.40;99.90;;;;;;5051209;28;20173;-50
2022/12/15 02:58:48;;;;;;;56.83;17.10;;;-3.40;99.90;;;;;;5051649;28;20646;-49
2022/12/15 03:01:25;;;;;;;56.53;16.37;;;-3.40;99.90;;;;;;5051100;28;20242;-49
2022/12/15 03:03:51;;;;;;;41.80;15.43;;;-3.40;99.90;;;;;;5051182;28;20634;-50
2022/12/15 03:06:18;;;;;;;49.10;15.27;;;-3.40;99.90;;;;;;5051525;28;20572;-53
2022/12/15 03:08:43;;;;;;;28.17;14.60;;;-3.40;99.90;;;;;;5054399;28;20208;-52
2022/12/15 03:11:09;;;;;;;32.20;12.63;;;-3.40;99.90;;;;;;5054954;28;20221;-52
2022/12/15 03:13:34;;;;;;;51.20;13.97;;;-3.50;99.90;;;;;;5054956;28;20179;-52
2022/12/15 03:16:00;;;;;;;37.20;15.47;;;-3.50;99.90;;;;;;5054870;28;20198;-49
2022/12/15 03:18:26;;;;;;;35.13;13.13;;;-3.50;99.90;;;;;;5054793;28;20169;-52
2022/12/15 03:20:52;;;;;;;45.07;15.50;;;-3.50;99.90;;;;;;5055052;28;20168;-52
2022/12/15 03:23:18;;;;;;;34.00;13.83;;;-3.50;99.90;;;;;;5055373;28;20228;-52
2022/12/15 03:25:45;;;;;;;35.70;13.00;;;-3.40;99.90;;;;;;5054704;28;20264;-51
2022/12/15 03:28:11;;;;;;;36.87;13.77;;;-3.40;99.90;;;;;;5054590;28;20202;-52
2022/12/15 03:30:36;;;;;;;36.73;13.77;;;-3.40;99.90;;;;;;5054725;28;20170;-51
2022/12/15 03:33:02;;;;;;;41.23;14.03;;;-3.40;99.90;;;;;;5054575;28;20657;-51
2022/12/15 03:35:28;;;;;;;36.23;12.63;;;-3.40;99.90;;;;;;5054523;28;20526;-52
2022/12/15 03:37:54;;;;;;;33.47;12.57;;;-3.50;99.90;;;;;;5054401;28;20217;-52
2022/12/15 03:40:20;;;;;;;32.70;14.03;;;-3.50;99.90;;;;;;5054481;28;20665;-49
2022/12/15 03:42:48;;;;;;;34.67;14.27;;;-3.50;99.90;;;;;;5054748;28;20224;-51
2022/12/15 03:45:19;;;;;;;31.90;14.73;;;-3.50;99.90;;;;;;5054418;28;20631;-52
2022/12/15 03:47:46;;;;;;;39.67;14.47;;;-3.60;99.90;;;;;;5054609;28;20654;-52
2022/12/15 03:50:14;;;;;;;45.23;17.10;;;-3.50;99.90;;;;;;5054250;28;20178;-51
2022/12/15 03:52:40;;;;;;;40.17;15.30;;;-3.50;99.90;;;;;;5054495;28;20201;-52
2022/12/15 03:55:06;;;;;;;39.90;14.83;;;-3.50;99.90;;;;;;5054159;28;20224;-52
2022/12/15 03:57:33;;;;;;;30.17;14.90;;;-3.50;99.90;;;;;;5054010;28;20547;-52
2022/12/15 03:59:58;;;;;;;37.57;14.53;;;-3.40;99.90;;;;;;5054343;28;20273;-52
2022/12/15 04:02:24;;;;;;;37.77;13.80;;;-3.60;99.90;;;;;;5053994;28;20250;-49
2022/12/15 04:04:49;;;;;;;38.67;13.83;;;-3.60;99.90;;;;;;5054008;28;20706;-52
2022/12/15 04:07:15;;;;;;;35.70;14.53;;;-3.60;99.90;;;;;;5054174;28;20537;-52
2022/12/15 04:09:41;;;;;;;35.37;15.03;;;-3.60;99.90;;;;;;5053870;28;20257;-51
2022/12/15 04:12:06;;;;;;;35.00;13.93;;;-3.60;99.90;;;;;;5053932;28;20197;-52
2022/12/15 04:14:32;;;;;;;29.90;12.70;;;-3.60;99.90;;;;;;5053770;28;20172;-49
2022/12/15 04:16:58;;;;;;;29.60;14.33;;;-3.50;99.90;;;;;;5053864;28;20185;-52
2022/12/15 04:22:07;;;;;;;25.03;12.60;;;-3.60;99.90;;;;;;5053670;28;20191;-52
2022/12/15 05:33:03;;;;;;;25.20;12.60;;;-3.80;99.90;;;;;;5052218;28;20800;-43
2022/12/15 05:35:28;;;;;;;23.70;11.40;;;-3.90;99.90;;;;;;5052279;28;20180;-43
2022/12/15 05:37:54;;;;;;;24.23;12.10;;;-3.80;99.90;;;;;;5050872;28;20171;-43
2022/12/15 05:40:19;;;;;;;23.87;13.10;;;-3.80;99.90;;;;;;5050504;28;20169;-43
2022/12/15 05:42:45;;;;;;;22.10;10.70;;;-3.80;99.90;;;;;;5051677;28;20172;-44
2022/12/15 05:45:10;;;;;;;31.73;13.43;;;-3.80;99.90;;;;;;5052071;28;20253;-46
2022/12/15 05:47:36;;;;;;;23.47;12.80;;;-3.80;99.90;;;;;;5051906;28;20200;-44
2022/12/15 05:50:01;;;;;;;22.10;12.43;;;-3.80;99.90;;;;;;5052001;28;20186;-43
2022/12/15 05:52:27;;;;;;;20.87;11.93;;;-3.80;99.90;;;;;;5050719;28;20171;-44
2022/12/15 05:54:52;;;;;;;24.17;11.57;;;-3.80;99.90;;;;;;5051946;28;20175;-43
2022/12/15 05:57:18;;;;;;;21.20;11.27;;;-3.80;99.90;;;;;;5051718;28;20185;-43
2022/12/15 05:59:44;;;;;;;27.97;12.83;;;-3.90;99.90;;;;;;5051923;28;20293;-43
2022/12/15 06:02:09;;;;;;;24.53;13.00;;;-3.90;99.90;;;;;;5051491;28;20225;-44
2022/12/15 06:04:35;;;;;;;23.43;12.67;;;-4.00;99.90;;;;;;5051668;28;20174;-44
2022/12/15 06:07:00;;;;;;;25.90;12.63;;;-3.90;99.90;;;;;;5051570;28;20174;-44
2022/12/15 06:09:26;;;;;;;24.73;12.77;;;-3.90;99.90;;;;;;5051671;28;20206;-43
2022/12/15 06:11:51;;;;;;;24.43;11.60;;;-4.00;99.90;;;;;;5051728;28;20175;-44
2022/12/15 06:14:17;;;;;;;26.83;11.40;;;-3.90;99.90;;;;;;5052168;28;20182;-44
2022/12/15 06:16:42;;;;;;;26.17;11.73;;;-3.90;99.90;;;;;;5051531;28;20507;-44
2022/12/15 06:19:08;;;;;;;25.60;12.83;;;-3.90;99.90;;;;;;5051614;28;20205;-46
2022/12/15 06:21:34;;;;;;;24.33;13.37;;;-3.90;99.90;;;;;;5051672;28;20186;-44
2022/12/15 06:24:01;;;;;;;26.00;12.77;;;-4.00;99.90;;;;;;5051627;28;20202;-48
2022/12/15 06:26:29;;;;;;;23.33;12.27;;;-3.80;99.90;;;;;;5051550;28;20205;-49
2022/12/15 06:28:57;;;;;;;26.50;14.40;;;-4.00;99.90;;;;;;5051368;28;20666;-47
2022/12/15 06:31:24;;;;;;;31.50;14.27;;;-3.90;99.90;;;;;;5051450;28;20173;-48
2022/12/15 06:33:50;;;;;;;23.97;12.23;;;-4.00;99.90;;;;;;5051744;28;20188;-51
2022/12/15 06:36:17;;;;;;;28.80;14.63;;;-4.00;99.90;;;;;;5051720;28;20169;-47
2022/12/15 06:38:43;;;;;;;28.67;13.33;;;-4.00;99.90;;;;;;5051402;28;20171;-44
2022/12/15 06:41:11;;;;;;;19.43;10.90;;;-3.90;99.90;;;;;;5051411;28;20506;-43
2022/12/15 06:43:37;;;;;;;29.10;14.27;;;-4.00;99.90;;;;;;5054662;28;20175;-50
2022/12/15 06:46:03;;;;;;;32.57;14.30;;;-4.00;99.90;;;;;;5055348;28;20175;-51
2022/12/15 06:48:29;;;;;;;33.40;14.27;;;-4.00;99.90;;;;;;5055164;28;20214;-43
2022/12/15 06:50:55;;;;;;;27.67;13.57;;;-4.00;99.90;;;;;;5055538;28;20181;-44
2022/12/15 06:53:23;;;;;;;25.53;12.87;;;-4.10;99.90;;;;;;5055278;28;20323;-43
2022/12/15 06:55:49;;;;;;;28.90;15.27;;;;;;;;;;5055170;28;20169;-43
2022/12/15 06:58:15;;;;;;;25.90;13.37;;;-4.10;99.90;;;;;;5055612;28;20163;-45
2022/12/15 07:00:42;;;;;;;28.03;13.97;;;-4.00;99.90;;;;;;5054969;28;20174;-44
2022/12/15 07:03:14;;;;;;;29.63;14.13;;;-4.10;99.90;;;;;;5055377;28;20194;-43
2022/12/15 07:05:39;;;;;;;25.13;13.33;;;-4.10;99.90;;;;;;5055300;28;20180;-43
2022/12/15 07:08:05;;;;;;;34.00;15.43;;;-4.00;99.90;;;;;;5054908;28;20209;-44
2022/12/15 07:10:31;;;;;;;26.60;14.30;;;-4.00;99.90;;;;;;5054913;28;20167;-43
2022/12/15 07:12:57;;;;;;;24.43;14.30;;;-4.00;99.90;;;;;;5054980;28;20184;-43
2022/12/15 07:15:23;;;;;;;22.63;13.33;;;-4.00;99.90;;;;;;5054809;28;20162;-43
2022/12/15 07:17:49;;;;;;;23.03;13.50;;;-4.00;99.90;;;;;;5054884;28;20158;-43
2022/12/15 07:20:15;;;;;;;29.40;14.03;;;-4.10;99.90;;;;;;5055402;28;20213;-43
2022/12/15 07:22:41;;;;;;;26.93;14.30;;;-4.00;99.90;;;;;;5054709;28;20207;-43
2022/12/15 07:25:07;;;;;;;26.37;14.40;;;-4.10;99.90;;;;;;5054651;28;20171;-53
2022/12/15 07:27:33;;;;;;;33.13;15.87;;;-4.00;99.90;;;;;;5054831;28;20602;-49
2022/12/15 07:29:58;;;;;;;31.63;14.37;;;-4.10;99.90;;;;;;5054876;28;20214;-52
2022/12/15 07:32:24;;;;;;;27.33;14.90;;;-4.00;99.90;;;;;;5054533;28;20174;-47
2022/12/15 07:34:49;;;;;;;33.47;14.43;;;-4.10;99.90;;;;;;5054494;28;20177;-43
2022/12/15 07:37:15;;;;;;;32.97;15.50;;;-4.10;99.90;;;;;;5055083;28;20166;-43
2022/12/15 07:39:41;;;;;;;33.20;16.20;;;-4.00;99.90;;;;;;5054440;28;20185;-43
2022/12/15 07:42:06;;;;;;;38.43;16.00;;;-4.00;99.90;;;;;;5054423;28;20219;-43
2022/12/15 07:44:32;;;;;;;27.10;15.20;;;-4.00;99.90;;;;;;5054392;28;20273;-44
2022/12/15 07:46:58;;;;;;;36.50;16.33;;;-4.00;99.90;;;;;;5052955;28;20173;-45
2022/12/15 07:49:24;;;;;;;30.40;16.40;;;-3.90;99.90;;;;;;5054427;28;20280;-44
2022/12/15 07:51:49;;;;;;;25.13;13.63;;;-4.00;99.90;;;;;;5054477;28;20686;-45
2022/12/15 07:54:15;;;;;;;31.70;15.63;;;-3.90;99.90;;;;;;5053473;28;20191;-45
2022/12/15 07:56:40;;;;;;;33.47;16.00;;;-3.90;99.90;;;;;;5054082;28;20170;-43
2022/12/15 07:59:07;;;;;;;32.23;14.53;;;-3.80;99.90;;;;;;5054307;28;20203;-50
2022/12/15 08:01:34;;;;;;;32.70;16.47;;;-3.80;99.90;;;;;;5053893;28;20233;-45
2022/12/15 08:03:59;;;;;;;34.20;17.27;;;-3.80;99.90;;;;;;5054180;28;20277;-43
2022/12/15 08:06:25;;;;;;;39.10;16.67;;;-3.80;99.90;;;;;;5053841;28;20249;-45
2022/12/15 08:08:51;;;;;;;34.43;16.23;;;-3.70;99.90;;;;;;5053799;28;20210;-44
2022/12/15 08:11:17;;;;;;;39.57;16.57;;;-3.70;99.90;;;;;;5054209;28;20172;-44
2022/12/15 08:13:43;;;;;;;44.53;19.20;;;-6.60;99.90;;;;;;5054409;28;20474;-44
2022/12/15 08:16:09;;;;;;;44.03;19.30;;;-3.60;99.90;;;;;;5054011;28;20581;-47
2022/12/15 08:18:35;;;;;;;40.60;17.97;;;-3.70;99.90;;;;;;5053837;28;20225;-44
2022/12/15 08:21:02;;;;;;;50.60;24.30;;;-3.70;99.90;;;;;;5053368;28;20810;-43
2022/12/15 08:23:29;;;;;;;55.03;21.13;;;-3.70;99.90;;;;;;5053576;28;20525;-43
2022/12/15 08:26:04;;;;;;;45.83;18.67;;;-3.80;99.90;;;;;;5053626;28;20174;-45
2022/12/15 08:28:31;;;;;;;49.03;18.93;;;-3.70;99.90;;;;;;5052085;28;20555;-44
2022/12/15 08:31:04;;;;;;;45.63;19.17;;;-3.70;99.90;;;;;;5053497;28;20163;-45
2022/12/15 08:33:30;;;;;;;50.70;21.20;;;-3.60;99.90;;;;;;5053295;28;20175;-44
2022/12/15 08:36:04;;;;;;;50.13;20.73;;;-3.70;99.90;;;;;;5053345;28;20167;-47
2022/12/15 08:38:30;;;;;;;47.83;19.13;;;-3.70;99.90;;;;;;5053319;28;20675;-48
2022/12/15 08:40:56;;;;;;;45.17;20.87;;;-3.50;99.90;;;;;;5053242;28;20244;-45
2022/12/15 08:43:22;;;;;;;57.37;23.40;;;-3.40;99.90;;;;;;5053279;28;20317;-44
2022/12/15 08:45:48;;;;;;;56.03;22.77;;;-3.30;99.90;;;;;;5053081;28;20636;-45
2022/12/15 08:48:13;;;;;;;60.53;25.10;;;-3.40;99.90;;;;;;5052086;28;20219;-45
2022/12/15 08:50:43;;;;;;;57.77;22.57;;;-3.20;99.90;;;;;;5053099;28;20171;-47
2022/12/15 08:53:10;;;;;;;52.50;22.63;;;-3.10;99.90;;;;;;5053247;28;20263;-44
2022/12/15 08:55:35;;;;;;;55.23;23.90;;;-3.20;99.90;;;;;;5052995;28;20207;-45
2022/12/15 08:58:01;;;;;;;55.23;23.27;;;-3.20;99.90;;;;;;5052885;28;20200;-46
2022/12/15 09:00:26;;;;;;;58.50;23.77;;;-3.20;99.90;;;;;;5052818;28;20168;-45
2022/12/15 09:02:52;;;;;;;58.83;25.60;;;-3.20;99.90;;;;;;5052876;28;20554;-43
2022/12/15 09:05:17;;;;;;;70.13;26.30;;;-3.20;99.90;;;;;;5052526;28;20166;-43
2022/12/15 09:07:43;;;;;;;61.20;26.07;;;-3.10;99.90;;;;;;5053003;28;20200;-43
2022/12/15 09:10:09;;;;;;;63.07;27.17;;;-2.90;99.90;;;;;;5052482;28;20715;-45
2022/12/15 09:12:35;;;;;;;55.97;24.93;;;;;;;;;;5052616;28;20210;-44
2022/12/15 09:15:01;;;;;;;65.67;26.87;;;-2.90;99.90;;;;;;5052663;28;20208;-45
2022/12/15 09:17:26;;;;;;;51.43;24.60;;;-2.90;99.90;;;;;;5052532;28;20178;-47
2022/12/15 09:19:52;;;;;;;52.83;22.90;;;-2.80;99.90;;;;;;5052474;28;20630;-43
2022/12/15 09:22:18;;;;;;;52.20;25.30;;;-2.70;99.90;;;;;;5052437;28;20630;-43
2022/12/15 09:24:43;;;;;;;64.23;25.73;;;-2.60;99.90;;;;;;5052805;28;20222;-44
2022/12/15 09:27:09;;;;;;;56.97;23.83;;;-2.60;99.90;;;;;;5052381;28;20175;-43
2022/12/15 09:29:34;;;;;;;57.93;25.30;;;-2.40;99.90;;;;;;5052224;28;20249;-43
2022/12/15 09:32:00;;;;;;;52.53;25.20;;;-2.40;99.90;;;;;;5052542;28;20177;-45
2022/12/15 09:34:26;;;;;;;55.50;25.30;;;-2.60;99.90;;;;;;5052232;28;20181;-43
2022/12/15 09:36:52;;;;;;;50.87;25.97;;;-2.70;99.90;;;;;;5052172;28;20173;-43
2022/12/15 09:39:18;;;;;;;57.77;24.93;;;-2.80;99.90;;;;;;5052196;28;20534;-43
2022/12/15 09:41:52;;;;;;;58.50;26.33;;;-2.80;99.90;;;;;;5052725;28;20183;-45
2022/12/15 09:44:20;;;;;;;59.37;25.77;;;-2.90;99.90;;;;;;5052095;28;20201;-43
2022/12/15 09:47:10;;;;;;;58.57;27.03;;;-2.80;99.90;;;;;;5052386;28;20188;-43
2022/12/15 09:49:55;;;;;;;59.27;25.40;;;-2.80;99.90;;;;;;5052209;28;20217;-45
2022/12/15 09:52:27;;;;;;;57.60;27.17;;;-2.60;99.90;;;;;;5052172;28;20201;-46
2022/12/15 09:54:54;;;;;;;61.60;26.13;;;-2.50;99.90;;;;;;5051881;28;20179;-45
2022/12/15 09:57:26;;;;;;;59.60;26.07;;;-2.50;99.90;;;;;;5051910;28;20768;-43
2022/12/15 10:00:14;;;;;;;56.53;24.90;;;-2.50;99.90;;;;;;5051901;28;20253;-43
2022/12/15 10:03:10;;;;;;;61.87;25.43;;;-2.50;99.90;;;;;;5051677;28;20312;-43
2022/12/15 10:05:56;;;;;;;51.67;24.73;;;-2.50;99.90;;;;;;5052007;28;20281;-43
2022/12/15 10:08:22;;;;;;;54.17;25.27;;;-2.50;99.90;;;;;;5051460;28;20263;-43
2022/12/15 10:11:10;;;;;;;54.70;25.23;;;-2.70;99.90;;;;;;5051718;28;20681;-44
2022/12/15 10:14:02;;;;;;;55.13;26.05;;;-2.60;99.90;;;;;;5051580;28;20170;-46
2022/12/15 10:16:49;;;;;;;55.37;26.30;;;-2.50;99.90;;;;;;5051496;28;20185;-44
2022/12/15 10:19:40;;;;;;;61.43;26.67;;;-2.40;99.90;;;;;;5051855;28;20683;-43
2022/12/15 10:22:15;;;;;;;69.37;26.77;;;-2.20;99.90;;;;;;5051570;28;20166;-43
2022/12/15 10:24:41;;;;;;;60.33;27.17;;;-2.20;99.90;;;;;;5051700;28;20258;-44
2022/12/15 10:27:16;;;;;;;58.60;26.87;;;-2.30;99.90;;;;;;5051519;28;20642;-44
2022/12/15 10:29:53;;;;;;;60.83;26.23;;;-2.30;99.90;;;;;;5051351;28;20213;-44
2022/12/15 10:32:24;;;;;;;59.47;26.92;;;-2.00;99.90;;;;;;5051465;28;20688;-43
2022/12/15 10:34:50;;;;;;;63.40;27.90;;;-2.10;99.90;;;;;;5051424;28;20179;-43
2022/12/15 10:37:18;;;;;;;63.88;29.42;;;-1.90;99.90;;;;;;5051881;28;20653;-43
2022/12/15 10:39:47;;;;;;;65.72;31.00;;;-1.70;99.90;;;;;;5051738;28;20642;-43
2022/12/15 10:42:26;;;;;;;80.47;36.80;;;-1.70;99.90;;;;;;5051759;28;20257;-44
2022/12/15 10:44:56;;;;;;;156.38;63.70;;;-1.80;99.90;;;;;;5051594;28;20201;-43
2022/12/15 10:47:27;;;;;;;146.13;58.13;;;-1.80;99.90;;;;;;5051271;28;20178;-43
2022/12/15 10:49:54;;;;;;;100.55;44.38;;;-1.60;99.90;;;;;;5051236;28;20232;-43
2022/12/15 10:52:22;;;;;;;108.03;45.42;;;-1.50;99.90;;;;;;5051269;28;20178;-43
2022/12/15 10:54:50;;;;;;;121.97;54.83;;;-1.40;99.90;;;;;;5051246;28;20225;-43
2022/12/15 10:57:29;;;;;;;104.32;43.25;;;-1.40;99.90;;;;;;5051828;28;20163;-43
2022/12/15 10:59:57;;;;;;;78.47;34.55;;;-1.40;99.90;;;;;;5051468;28;20170;-43
2022/12/15 11:02:30;;;;;;;106.03;48.10;;;-1.40;99.90;;;;;;5050967;28;20222;-43
2022/12/15 11:04:57;;;;;;;62.72;29.23;;;-1.40;99.90;;;;;;5051345;28;20206;-43
2022/12/15 11:07:28;;;;;;;84.63;42.35;;;-1.40;99.90;;;;;;5051059;28;20178;-43
2022/12/15 11:09:59;;;;;;;66.60;30.85;;;-1.30;99.90;;;;;;5051090;28;20167;-44
2022/12/15 11:15:20;;;;;;;80.57;43.38;;;-1.40;99.90;;;;;;5051350;28;20173;-43
2022/12/15 11:17:55;;;;;;;64.70;33.00;;;-1.50;99.90;;;;;;5051396;28;20653;-43
2022/12/15 11:20:27;;;;;;;69.72;31.63;;;-1.70;99.90;;;;;;5051333;28;20582;-43
2022/12/15 11:23:35;;;;;;;78.75;40.78;;;-1.60;99.90;;;;;;5049640;28;20174;-43
2022/12/15 11:26:05;;;;;;;64.18;32.03;;;-1.30;99.90;;;;;;5043618;28;20266;-43
2022/12/15 11:29:00;;;;;;;59.35;30.48;;;-1.30;99.90;;;;;;5050906;28;20681;-44
2022/12/15 11:31:37;;;;;;;59.30;28.80;;;-1.30;99.90;;;;;;5054653;28;20167;-43
2022/12/15 11:34:09;;;;;;;96.40;47.45;;;-1.30;99.90;;;;;;5054384;28;20531;-44
2022/12/15 11:36:46;;;;;;;112.20;57.08;;;-1.00;99.90;;;;;;5054386;28;20655;-43
2022/12/15 11:39:14;;;;;;;70.68;36.72;;;-0.90;99.90;;;;;;5054760;28;20622;-43
2022/12/15 11:41:50;;;;;;;62.90;27.65;;;-0.90;99.90;;;;;;5054354;28;20167;-44
2022/12/15 11:44:25;;;;;;;56.65;25.95;;;-1.00;99.90;;;;;;5054714;28;20241;-43
2022/12/15 11:47:23;;;;;;;57.63;28.10;;;-1.20;99.90;;;;;;5054298;28;20171;-43
2022/12/15 11:50:11;;;;;;;67.57;32.17;;;-1.30;99.90;;;;;;5054503;28;20243;-43
2022/12/15 11:52:47;;;;;;;66.93;29.67;;;-1.20;99.90;;;;;;5054506;28;20542;-43
2022/12/15 11:55:38;;;;;;;58.97;28.38;;;-1.10;99.90;;;;;;5054579;28;20162;-43
2022/12/15 11:58:26;;;;;;;64.22;29.25;;;-1.10;99.90;;;;;;5054095;28;20566;-43
2022/12/15 12:01:35;;;;;;;72.10;32.40;;;-1.30;99.90;;;;;;5053880;28;20681;-44
2022/12/15 12:04:23;;;;;;;65.30;31.38;;;-1.30;99.90;;;;;;5053936;28;20627;-44
2022/12/15 12:07:06;;;;;;;71.53;32.63;;;-1.20;99.90;;;;;;5053794;28;20190;-44
2022/12/15 12:10:11;;;;;;;73.10;33.08;;;-1.20;99.90;;;;;;5053708;28;20202;-43
2022/12/15 12:12:48;;;;;;;84.60;40.10;;;-1.10;99.90;;;;;;5047182;28;20198;-43
2022/12/15 12:15:29;;;;;;;96.22;38.20;;;-1.20;99.90;;;;;;5054147;28;20249;-43
2022/12/15 12:18:05;;;;;;;86.43;41.20;;;-1.20;99.90;;;;;;5053983;28;20225;-43
2022/12/15 12:20:45;;;;;;;102.63;43.85;;;-1.20;99.90;;;;;;5053705;28;20181;-44
2022/12/15 12:23:39;;;;;;;98.90;43.30;;;-1.20;99.90;;;;;;5054012;28;20182;-44
2022/12/15 12:26:30;;;;;;;113.47;48.60;;;-1.30;99.90;;;;;;5052232;28;20183;-44
2022/12/15 12:29:01;;;;;;;109.70;48.03;;;-1.40;99.90;;;;;;5053457;28;20674;-44
2022/12/15 12:31:44;;;;;;;128.27;51.55;;;-1.40;99.90;;;;;;5053758;28;20241;-44
2022/12/15 12:34:18;;;;;;;103.45;44.25;;;-1.40;99.90;;;;;;5053392;28;20166;-43
2022/12/15 12:36:46;;;;;;;98.85;40.88;;;-1.50;99.90;;;;;;5053715;28;20178;-43
2022/12/15 12:39:19;;;;;;;118.57;49.92;;;-1.40;99.90;;;;;;5053655;28;20217;-44
2022/12/15 12:41:47;;;;;;;123.32;51.40;;;-1.30;99.90;;;;;;5053448;28;20207;-43
2022/12/15 12:44:31;;;;;;;101.45;43.03;;;-1.30;99.90;;;;;;5053531;28;20574;-44
2022/12/15 12:47:04;;;;;;;92.50;39.67;;;-1.60;99.90;;;;;;5053443;28;20542;-43
2022/12/15 12:49:38;;;;;;;106.32;44.40;;;-1.60;99.90;;;;;;5053335;28;20256;-43
2022/12/15 12:52:05;;;;;;;92.93;37.20;;;-1.60;99.90;;;;;;5053004;28;20191;-43
2022/12/15 12:54:40;;;;;;;93.50;37.17;;;-1.70;99.90;;;;;;5053026;28;20242;-43
2022/12/15 12:57:31;;;;;;;93.47;38.35;;;-1.70;99.90;;;;;;5052877;28;20562;-44
2022/12/15 13:00:18;;;;;;;96.82;41.15;;;-1.70;99.90;;;;;;5053037;28;20631;-43
2022/12/15 13:03:12;;;;;;;95.97;40.53;;;-1.60;99.90;;;;;;5051698;28;20226;-43
2022/12/15 13:05:38;;;;;;;93.27;44.40;;;-1.60;99.90;;;;;;5053020;28;20261;-44
2022/12/15 13:08:04;;;;;;;101.95;42.22;;;-1.70;99.90;;;;;;5052869;28;20289;-44
2022/12/15 13:10:38;;;;;;;99.10;40.47;;;-1.70;99.90;;;;;;5052730;28;20642;-44
2022/12/15 13:13:36;;;;;;;110.28;46.65;;;-1.70;99.90;;;;;;5052589;28;20159;-43
2022/12/15 13:16:26;;;;;;;96.13;43.00;;;-1.70;99.90;;;;;;5052761;28;20174;-45
2022/12/15 13:19:03;;;;;;;121.63;51.20;;;-1.60;99.90;;;;;;5052507;28;20188;-44
2022/12/15 13:21:40;;;;;;;100.85;43.17;;;-1.60;99.90;;;;;;5052378;28;20173;-44
2022/12/15 13:24:40;;;;;;;94.90;42.40;;;-1.40;99.90;;;;;;5052311;28;20166;-47
2022/12/15 13:27:15;;;;;;;103.93;42.22;;;-1.30;99.90;;;;;;5048584;28;20178;-44
2022/12/15 13:30:00;;;;;;;102.10;41.00;;;-1.30;99.90;;;;;;5050737;28;21261;-47
2022/12/15 13:32:37;;;;;;;101.10;39.83;;;-1.30;99.90;;;;;;5050698;28;20169;-43
2022/12/15 13:35:20;;;;;;;109.68;42.75;;;-1.30;99.90;;;;;;5050232;28;20170;-45
2022/12/15 13:38:01;;;;;;;132.05;61.55;;;-1.20;99.90;;;;;;5050702;28;20189;-47
2022/12/15 13:40:35;;;;;;;98.13;42.53;;;-1.20;99.90;;;;;;5050728;28;20174;-49
2022/12/15 13:43:03;;;;;;;77.10;35.80;;;-1.10;99.90;;;;;;5050652;28;20261;-50
2022/12/15 13:45:49;;;;;;;64.05;30.90;;;-1.20;99.90;;;;;;5050392;28;20634;-42
2022/12/15 13:48:37;;;;;;;67.25;30.63;;;-1.20;99.90;;;;;;5050604;28;20206;-48
2022/12/15 13:51:16;;;;;;;63.90;31.65;;;-1.40;99.90;;;;;;5049948;28;20209;-44
2022/12/15 13:53:47;;;;;;;69.95;34.28;;;-1.30;99.90;;;;;;5050544;28;20166;-51
2022/12/15 13:56:33;;;;;;;64.57;31.45;;;-1.20;99.90;;;;;;5050465;28;20253;-48
2022/12/15 13:59:04;;;;;;;61.17;30.13;;;-1.30;99.90;;;;;;5050089;28;20175;-48
2022/12/15 14:01:31;;;;;;;62.08;30.83;;;-1.30;99.90;;;;;;5049947;28;20291;-48
2022/12/15 14:04:15;;;;;;;55.40;28.77;;;-1.30;99.90;;;;;;5049933;28;20181;-50
2022/12/15 14:06:54;;;;;;;64.25;29.85;;;-1.30;99.90;;;;;;5050310;28;20539;-45
2022/12/15 14:09:28;;;;;;;55.55;27.75;;;-1.30;99.90;;;;;;5050053;28;20300;-50
2022/12/15 14:11:54;;;;;;;52.50;27.95;;;-0.10;99.90;;;;;;5048501;28;20274;-43
2022/12/15 14:14:24;;;;;;;52.05;25.83;;;-1.20;99.90;;;;;;5050165;28;20173;-48
2022/12/15 14:17:02;;;;;;;48.50;25.27;;;-1.20;99.90;;;;;;5049924;28;20264;-49
2022/12/15 14:19:42;;;;;;;46.58;24.20;;;-1.20;99.90;;;;;;5050009;28;20440;-47
2022/12/15 14:22:27;;;;;;;44.55;23.63;;;-1.20;99.90;;;;;;5049783;28;20595;-48
2022/12/15 14:24:59;;;;;;;54.40;26.33;;;-1.20;99.90;;;;;;5049865;28;20178;-51
2022/12/15 14:27:27;;;;;;;45.95;24.00;;;-1.20;99.90;;;;;;5049810;28;20253;-46
2022/12/15 14:30:31;;;;;;;45.88;24.38;;;-1.20;99.90;;;;;;5048172;28;20190;-45
2022/12/15 14:32:59;;;;;;;41.63;23.27;;;-1.20;99.90;;;;;;5027241;28;20189;-46
2022/12/15 14:35:34;;;;;;;45.60;23.93;;;-1.30;99.90;;;;;;5046234;28;20187;-44
2022/12/15 14:38:04;;;;;;;87.57;45.93;;;-1.30;99.90;;;;;;5049756;28;20653;-45
2022/12/15 14:40:32;;;;;;;50.78;25.13;;;-1.30;99.90;;;;;;5049654;28;20166;-45
2022/12/15 14:42:58;;;;;;;49.00;25.17;;;-1.30;99.90;;;;;;5049611;28;20194;-45
2022/12/15 14:45:26;;;;;;;53.95;31.08;;;-1.30;99.90;;;;;;5049484;28;20578;-45
2022/12/15 14:47:56;;;;;;;41.30;23.60;;;-1.30;99.90;;;;;;5049235;28;20201;-45
2022/12/15 14:50:23;;;;;;;50.00;26.10;;;-1.30;99.90;;;;;;5048523;28;20249;-46
2022/12/15 14:53:04;;;;;;;41.95;24.65;;;-1.30;99.90;;;;;;5048951;28;20228;-46
2022/12/15 14:55:36;;;;;;;48.30;26.20;;;-1.30;99.90;;;;;;5048039;28;20170;-45
2022/12/15 14:58:22;;;;;;;55.03;25.63;;;-1.30;99.90;;;;;;5048951;28;20182;-45
2022/12/15 15:00:51;;;;;;;50.03;23.52;;;-1.40;99.90;;;;;;5048956;28;20692;-45
2022/12/15 15:03:17;;;;;;;47.43;24.77;;;-1.30;99.90;;;;;;5050039;28;20182;-46
2022/12/15 15:05:52;;;;;;;43.00;21.80;;;-1.30;99.90;;;;;;5053785;28;20178;-45
2022/12/15 15:08:30;;;;;;;45.00;23.63;;;-1.30;99.90;;;;;;5052707;28;20226;-45
2022/12/15 15:11:00;;;;;;;52.65;24.05;;;-1.50;99.90;;;;;;5053199;28;20170;-46
2022/12/15 15:13:34;;;;;;;47.37;23.87;;;-1.50;99.90;;;;;;5053281;28;20526;-45